Time;durP1;ratioP1;P1;durP2;ratioP2;P2;SDS_P1;SDS_P2;PMS_P1;PMS_P2;Temp;Humidity;BMP_temperature;BMP_pressure;BME280_temperature;BME280_humidity;BME280_pressure;Samples;Min_cycle;Max_cycle;Signal;HPM_P1;HPM_P2
2022/09/08 00:01:02;;;;;;;13.43;10.57;;;;;;;;;;4994788;28;20456;-75
2022/09/08 00:03:29;;;;;;;14.47;11.67;;;;;;;;;;4996297;28;20579;-75
2022/09/08 00:05:59;;;;;;;13.10;11.27;;;;;;;;;;4995757;28;20512;-75
2022/09/08 00:08:27;;;;;;;12.90;11.70;;;;;;;;;;4996826;28;20464;-75
2022/09/08 00:10:57;;;;;;;13.40;11.77;;;;;;;;;;4995178;28;20686;-75
2022/09/08 00:13:28;;;;;;;15.23;12.03;;;;;;;;;;4996898;28;20487;-75
2022/09/08 00:15:55;;;;;;;15.03;10.90;;;;;;;;;;4997483;28;20456;-75
2022/09/08 00:18:23;;;;;;;11.57;10.43;;;;;;;;;;4997838;28;20811;-75
2022/09/08 00:20:50;;;;;;;12.20;10.30;;;;;;;;;;4997351;28;20454;-75
2022/09/08 00:23:19;;;;;;;10.90;9.70;;;;;;;;;;4998390;28;20492;-74
2022/09/08 00:25:46;;;;;;;11.67;10.43;;;;;;;;;;4997656;28;20456;-74
2022/09/08 00:28:17;;;;;;;12.93;10.13;;;;;;;;;;4997449;28;21268;-74
2022/09/08 00:30:45;;;;;;;11.60;10.50;;;;;;;;;;4997462;28;20773;-75
2022/09/08 00:33:12;;;;;;;12.07;10.40;;;;;;;;;;4997740;28;20471;-75
2022/09/08 00:35:42;;;;;;;12.30;11.10;;;;;;;;;;4995608;28;20464;-74
2022/09/08 00:38:09;;;;;;;11.67;10.47;;;;;;;;;;4997119;28;20460;-75
2022/09/08 00:40:44;;;;;;;13.63;12.23;;;;;;;;;;4997367;28;20491;-74
2022/09/08 00:43:11;;;;;;;13.93;12.47;;;;;;;;;;4997596;28;20546;-74
2022/09/08 00:45:40;;;;;;;16.73;12.70;;;;;;;;;;4996997;28;20455;-74
2022/09/08 00:48:10;;;;;;;17.47;12.30;;;;;;;;;;4997946;28;20486;-75
2022/09/08 00:50:37;;;;;;;13.80;11.93;;;;;;;;;;4997529;28;20446;-73
2022/09/08 00:53:08;;;;;;;14.57;11.70;;;;;;;;;;4996206;28;20518;-74
2022/09/08 00:55:37;;;;;;;13.83;12.40;;;;;;;;;;4997637;28;20510;-74
2022/09/08 00:58:05;;;;;;;17.63;12.80;;;;;;;;;;4997386;28;20474;-74
2022/09/08 01:00:33;;;;;;;14.73;12.13;;;;;;;;;;4996920;28;20467;-74
2022/09/08 01:03:01;;;;;;;15.30;12.10;;;;;;;;;;4998063;28;20488;-74
2022/09/08 01:05:34;;;;;;;13.00;11.60;;;;;;;;;;4996960;28;20468;-74
2022/09/08 01:13:40;;;;;;;15.23;12.57;;;;;;;;;;4997656;28;20444;-74
2022/09/08 01:16:08;;;;;;;13.37;12.00;;;;;;;;;;4996687;28;20456;-74
2022/09/08 01:18:37;;;;;;;12.17;10.87;;;;;;;;;;4996691;28;20462;-74
2022/09/08 01:21:08;;;;;;;13.10;11.67;;;;;;;;;;4996951;28;20552;-74
2022/09/08 01:23:50;;;;;;;13.60;12.17;;;;;;;;;;4997481;28;20557;-74
2022/09/08 01:26:25;;;;;;;16.17;12.00;;;;;;;;;;4997443;28;20452;-74
2022/09/08 01:28:55;;;;;;;14.17;12.83;;;;;;;;;;4996938;28;20475;-74
2022/09/08 01:31:23;;;;;;;14.50;11.57;;;;;;;;;;4996596;28;20459;-74
2022/09/08 01:33:50;;;;;;;14.03;12.73;;;;;;;;;;4996932;28;20456;-74
2022/09/08 01:36:18;;;;;;;13.60;11.73;;;;;;;;;;4997306;28;20460;-74
2022/09/08 01:38:45;;;;;;;12.97;11.67;;;;;;;;;;4997412;28;20876;-74
2022/09/08 01:41:13;;;;;;;13.80;12.40;;;;;;;;;;4997563;28;20452;-74
2022/09/08 01:43:40;;;;;;;16.13;11.47;;;;;;;;;;4996272;28;20488;-74
2022/09/08 01:46:08;;;;;;;11.90;10.70;;;;;;;;;;4997133;28;20521;-74
2022/09/08 01:48:36;;;;;;;14.80;12.53;;;;;;;;;;4996784;28;20464;-74
2022/09/08 01:51:04;;;;;;;12.87;11.57;;;;;;;;;;4998091;28;20559;-74
2022/09/08 01:53:31;;;;;;;13.77;11.83;;;;;;;;;;4997143;28;20734;-74
2022/09/08 01:55:59;;;;;;;13.50;11.10;;;;;;;;;;4997463;28;20480;-74
2022/09/08 01:58:30;;;;;;;11.93;10.80;;;;;;;;;;4997611;28;20853;-74
2022/09/08 02:00:58;;;;;;;14.00;12.60;;;;;;;;;;4996911;28;20544;-74
2022/09/08 02:03:26;;;;;;;11.83;10.60;;;;;;;;;;4997336;28;20518;-74
2022/09/08 02:05:53;;;;;;;15.87;14.23;;;;;;;;;;4996263;28;20910;-74
2022/09/08 02:08:21;;;;;;;15.60;12.33;;;;;;;;;;4996835;28;20527;-74
2022/09/08 02:10:53;;;;;;;13.40;12.00;;;;;;;;;;4996206;28;20456;-74
2022/09/08 02:13:20;;;;;;;14.57;12.57;;;;;;;;;;4996338;28;20456;-74
2022/09/08 02:15:48;;;;;;;14.00;12.40;;;;;;;;;;4997004;28;20510;-74
2022/09/08 02:18:15;;;;;;;16.83;13.50;;;;;;;;;;4996279;28;20519;-74
2022/09/08 02:20:43;;;;;;;14.47;11.80;;;;;;;;;;4995264;28;20460;-74
2022/09/08 02:23:11;;;;;;;16.33;12.07;;;;;;;;;;4993948;28;20509;-74
2022/09/08 02:25:38;;;;;;;15.37;12.60;;;;;;;;;;4994671;28;20452;-74
2022/09/08 02:28:05;;;;;;;13.93;12.53;;;;;;;;;;4994524;28;20879;-74
2022/09/08 02:30:34;;;;;;;16.47;12.10;;;;;;;;;;4994329;28;20452;-75
2022/09/08 02:33:02;;;;;;;14.40;12.90;;;;;;;;;;4994841;28;20464;-74
2022/09/08 02:35:30;;;;;;;14.53;12.10;;;;;;;;;;4993008;28;20448;-74
2022/09/08 02:37:58;;;;;;;14.93;11.77;;;;;;;;;;4994510;28;20460;-74
2022/09/08 02:40:27;;;;;;;14.20;12.60;;;;;;;;;;4992348;28;20448;-74
2022/09/08 02:42:54;;;;;;;15.00;11.83;;;;;;;;;;4994344;28;20504;-74
2022/09/08 02:45:21;;;;;;;14.17;12.67;;;;;;;;;;4993591;28;20771;-74
2022/09/08 02:47:52;;;;;;;15.60;12.77;;;;;;;;;;4993497;28;20499;-74
2022/09/08 02:50:19;;;;;;;12.30;11.07;;;;;;;;;;4993164;28;20456;-74
2022/09/08 02:52:52;;;;;;;13.03;11.63;;;;;;;;;;4991772;28;20457;-74
2022/09/08 02:55:23;;;;;;;13.40;11.87;;;;;;;;;;4992001;28;20527;-74
2022/09/08 02:57:50;;;;;;;12.03;10.80;;;;;;;;;;4993019;28;20682;-74
2022/09/08 03:00:19;;;;;;;14.47;11.17;;;;;;;;;;4994878;28;20811;-73
2022/09/08 03:02:47;;;;;;;12.67;10.70;;;;;;;;;;4996253;28;20459;-75
2022/09/08 03:05:16;;;;;;;12.57;11.27;;;;;;;;;;4995161;28;20748;-75
2022/09/08 03:07:44;;;;;;;17.80;11.50;;;;;;;;;;4994045;28;20440;-76
2022/09/08 03:10:11;;;;;;;11.47;9.93;;;;;;;;;;4995173;28;20955;-76
2022/09/08 03:12:40;;;;;;;14.60;12.23;;;;;;;;;;4994452;28;20452;-76
2022/09/08 03:15:10;;;;;;;10.63;9.60;;;;;;;;;;4995110;28;20537;-76
2022/09/08 03:17:37;;;;;;;11.53;10.17;;;;;;;;;;4994486;28;20486;-75
2022/09/08 03:20:05;;;;;;;14.53;11.90;;;;;;;;;;4993621;28;20878;-75
2022/09/08 03:22:32;;;;;;;13.27;11.07;;;;;;;;;;4994958;28;20452;-75
2022/09/08 03:24:59;;;;;;;12.73;10.57;;;;;;;;;;4993840;28;20990;-75
2022/09/08 03:27:27;;;;;;;12.70;10.40;;;;;;;;;;4993286;28;20486;-75
2022/09/08 03:29:55;;;;;;;11.50;10.30;;;;;;;;;;4993892;28;20455;-75
2022/09/08 03:32:22;;;;;;;13.30;10.90;;;;;;;;;;4995041;28;20479;-75
2022/09/08 03:34:56;;;;;;;12.03;10.90;;;;;;;;;;4994702;28;20452;-75
2022/09/08 03:37:23;;;;;;;13.13;11.73;;;;;;;;;;4995098;28;20464;-75
2022/09/08 03:39:56;;;;;;;13.77;11.00;;;;;;;;;;4994239;28;20869;-75
2022/09/08 03:42:23;;;;;;;12.80;11.50;;;;;;;;;;4995446;28;20460;-75
2022/09/08 03:44:52;;;;;;;11.97;9.73;;;;;;;;;;4994726;28;20492;-75
2022/09/08 03:47:21;;;;;;;11.50;10.37;;;;;;;;;;4995012;28;20466;-75
2022/09/08 03:49:49;;;;;;;12.77;11.17;;;;;;;;;;4994269;28;20926;-75
2022/09/08 03:52:17;;;;;;;11.63;10.43;;;;;;;;;;4993692;28;20460;-75
2022/09/08 03:54:50;;;;;;;12.23;10.80;;;;;;;;;;4993421;28;20899;-75
2022/09/08 03:57:21;;;;;;;14.97;10.17;;;;;;;;;;4995555;28;20854;-75
2022/09/08 03:59:52;;;;;;;15.60;13.10;;;;;;;;;;4992867;28;20606;-75
2022/09/08 04:02:23;;;;;;;11.60;10.40;;;;;;;;;;4981815;28;20496;-75
2022/09/08 04:04:52;;;;;;;13.87;10.00;;;;;;;;;;4975437;28;20549;-75
2022/09/08 04:07:19;;;;;;;13.60;10.93;;;;;;;;;;4973228;28;20890;-75
2022/09/08 04:09:47;;;;;;;13.90;11.40;;;;;;;;;;4975048;28;20964;-75
2022/09/08 04:12:14;;;;;;;16.93;10.70;;;;;;;;;;4973575;28;20461;-75
2022/09/08 04:14:43;;;;;;;16.03;11.47;;;;;;;;;;4992688;28;20468;-76
2022/09/08 04:17:10;;;;;;;14.03;10.73;;;;;;;;;;4995179;28;20960;-74
2022/09/08 04:19:38;;;;;;;11.90;10.70;;;;;;;;;;4994806;28;20459;-75
2022/09/08 04:22:06;;;;;;;11.07;9.40;;;;;;;;;;4993503;28;20526;-75
2022/09/08 04:24:34;;;;;;;16.33;10.63;;;;;;;;;;4994265;28;20643;-75
2022/09/08 04:27:01;;;;;;;12.10;8.90;;;;;;;;;;4992870;28;20456;-75
2022/09/08 04:29:28;;;;;;;12.03;10.83;;;;;;;;;;4993405;28;20588;-75
2022/09/08 04:31:55;;;;;;;12.20;10.90;;;;;;;;;;4993279;28;20452;-75
2022/09/08 04:34:23;;;;;;;11.70;10.00;;;;;;;;;;4994261;28;20553;-75
2022/09/08 04:36:50;;;;;;;11.73;10.60;;;;;;;;;;4993767;28;20452;-75
2022/09/08 04:39:20;;;;;;;13.10;10.73;;;;;;;;;;4992689;28;20471;-75
2022/09/08 04:41:47;;;;;;;11.40;10.20;;;;;;;;;;4991116;28;20467;-75
2022/09/08 04:44:14;;;;;;;12.70;9.37;;;;;;;;;;4993056;28;20579;-75
2022/09/08 04:46:44;;;;;;;13.83;10.07;;;;;;;;;;4993509;28;20509;-77
2022/09/08 04:49:13;;;;;;;11.57;9.83;;;;;;;;;;4993078;28;20486;-76
2022/09/08 04:51:40;;;;;;;10.40;8.80;;;;;;;;;;4993899;28;20531;-76
2022/09/08 04:54:13;;;;;;;10.77;9.67;;;;;;;;;;4992543;28;20464;-76
2022/09/08 04:56:41;;;;;;;10.57;9.47;;;;;;;;;;4992212;28;20942;-75
2022/09/08 04:59:08;;;;;;;10.80;9.70;;;;;;;;;;4993568;28;20818;-75
2022/09/08 05:01:36;;;;;;;10.50;8.20;;;;;;;;;;4987748;28;20852;-75
2022/09/08 05:04:06;;;;;;;10.53;8.90;;;;;;;;;;4979545;28;20792;-75
2022/09/08 05:06:35;;;;;;;10.80;9.40;;;;;;;;;;4973529;28;20453;-75
2022/09/08 05:09:03;;;;;;;19.57;15.60;;;;;;;;;;4983073;28;20613;-75
2022/09/08 05:11:31;;;;;;;11.00;8.60;;;;;;;;;;4980616;28;20457;-74
2022/09/08 05:13:59;;;;;;;10.13;9.03;;;;;;;;;;5016322;28;20472;-74
2022/09/08 05:16:28;;;;;;;11.50;9.10;;;;;;;;;;5074279;28;20464;-74
2022/09/08 05:18:56;;;;;;;11.83;9.33;;;;;;;;;;5073224;28;20474;-73
2022/09/08 05:21:24;;;;;;;10.20;8.27;;;;;;;;;;5073257;28;20782;-74
2022/09/08 05:23:51;;;;;;;10.07;8.60;;;;;;;;;;5038191;28;20557;-73
2022/09/08 05:26:19;;;;;;;9.60;8.30;;;;;;;;;;4991339;28;20455;-73
2022/09/08 05:28:46;;;;;;;12.80;9.90;;;;;;;;;;4991355;28;20753;-74
2022/09/08 05:31:21;;;;;;;12.20;7.93;;;;;;;;;;4980273;28;20442;-73
2022/09/08 05:33:49;;;;;;;11.20;8.77;;;;;;;;;;4969448;28;20452;-73
2022/09/08 05:36:18;;;;;;;13.60;8.33;;;;;;;;;;4967459;28;20468;-73
2022/09/08 05:38:45;;;;;;;11.33;8.40;;;;;;;;;;4968902;28;20746;-74
2022/09/08 05:41:19;;;;;;;11.33;7.63;;;;;;;;;;4971772;28;20549;-73
2022/09/08 05:43:47;;;;;;;8.17;7.37;;;;;;;;;;4987719;28;20487;-73
2022/09/08 05:46:21;;;;;;;11.90;6.40;;;;;;;;;;4988960;28;20506;-73
2022/09/08 05:48:48;;;;;;;12.13;6.87;;;;;;;;;;4990292;28;20461;-74
2022/09/08 05:51:18;;;;;;;9.20;6.83;;;;;;;;;;4987995;28;20781;-74
2022/09/08 05:53:49;;;;;;;7.77;6.60;;;;;;;;;;4990661;28;20487;-74
2022/09/08 05:56:18;;;;;;;10.63;7.07;;;;;;;;;;4981226;28;20808;-74
2022/09/08 05:59:12;;;;;;;7.70;6.40;;;;;;;;;;4979205;28;20599;-73
2022/09/08 06:01:53;;;;;;;10.93;6.40;;;;;;;;;;4898144;29;20461;-73
2022/09/08 06:04:25;;;;;;;8.13;6.30;;;;;;;;;;4988868;28;20519;-74
2022/09/08 06:07:01;;;;;;;9.63;6.43;;;;;;;;;;4978351;28;20485;-74
2022/09/08 06:09:37;;;;;;;9.17;6.90;;;;;;;;;;4988470;28;20873;-74
2022/09/08 06:15:06;;;;;;;12.60;6.83;;;;;;;;;;4972060;28;20453;-73
2022/09/08 06:17:50;;;;;;;9.90;8.57;;;;;;;;;;4978868;28;20449;-73
2022/09/08 06:20:30;;;;;;;8.20;7.20;;;;;;;;;;4989436;28;20472;-74
2022/09/08 06:23:09;;;;;;;10.70;7.00;;;;;;;;;;4990461;28;20943;-74
2022/09/08 06:25:45;;;;;;;8.13;6.73;;;;;;;;;;4988511;28;20459;-74
2022/09/08 06:28:22;;;;;;;13.03;7.03;;;;;;;;;;5021655;28;20463;-74
2022/09/08 06:31:28;;;;;;;9.40;6.60;;;;;;;;;;4969450;28;20782;-74
2022/09/08 06:34:13;;;;;;;14.33;6.90;;;;;;;;;;4986892;28;20470;-73
2022/09/08 06:36:55;;;;;;;7.53;6.20;;;;;;;;;;4990282;28;20510;-73
2022/09/08 06:39:27;;;;;;;8.70;6.23;;;;;;;;;;4989400;28;20436;-73
2022/09/08 06:42:06;;;;;;;10.97;7.90;;;;;;;;;;4990662;28;20468;-73
2022/09/08 06:44:44;;;;;;;8.17;5.83;;;;;;;;;;4980502;28;20487;-73
2022/09/08 06:47:19;;;;;;;9.23;6.40;;;;;;;;;;4990874;28;20459;-73
2022/09/08 06:49:49;;;;;;;7.47;6.20;;;;;;;;;;4991250;28;20465;-73
2022/09/08 06:52:19;;;;;;;8.33;5.73;;;;;;;;;;4990698;28;20460;-74
2022/09/08 06:54:51;;;;;;;7.33;5.43;;;;;;;;;;4987311;28;20762;-74
2022/09/08 06:57:28;;;;;;;12.57;5.73;;;;;;;;;;4991061;28;20453;-74
2022/09/08 07:00:01;;;;;;;8.70;5.67;;;;;;;;;;4971053;28;20495;-75
2022/09/08 07:02:50;;;;;;;8.00;5.13;;;;;;;;;;4987592;28;21047;-74
2022/09/08 07:05:31;;;;;;;10.63;4.70;;;;;;;;;;4993176;28;20484;-73
2022/09/08 07:08:03;;;;;;;8.27;5.27;;;;;;;;;;4989034;28;20567;-74
2022/09/08 07:10:31;;;;;;;5.80;4.07;;;;;;;;;;4986238;28;20519;-73
2022/09/08 07:13:03;;;;;;;9.70;5.00;;;;;;;;;;4981912;28;20475;-73
2022/09/08 07:15:49;;;;;;;5.50;3.80;;;;;;;;;;4987561;28;20464;-75
2022/09/08 07:18:21;;;;;;;5.67;4.80;;;;;;;;;;4979944;28;20461;-74
2022/09/08 07:23:58;;;;;;;6.80;4.87;;;;;;;;;;4982731;28;20587;-74
2022/09/08 07:26:34;;;;;;;6.97;4.47;;;;;;;;;;4990104;28;20497;-74
2022/09/08 07:29:13;;;;;;;8.00;4.93;;;;;;;;;;4986438;28;20479;-75
2022/09/08 07:31:49;;;;;;;7.10;5.37;;;;;;;;;;4981833;28;20461;-74
2022/09/08 07:34:19;;;;;;;6.10;4.53;;;;;;;;;;4990437;28;20607;-74
2022/09/08 07:36:50;;;;;;;5.87;4.00;;;;;;;;;;4988299;28;20497;-74
2022/09/08 07:39:20;;;;;;;6.50;4.53;;;;;;;;;;4981011;28;20529;-74
2022/09/08 07:42:03;;;;;;;9.37;3.70;;;;;;;;;;4988575;28;20521;-73
2022/09/08 07:44:32;;;;;;;8.67;4.60;;;;;;;;;;4988831;28;20483;-74
2022/09/08 07:47:10;;;;;;;7.33;3.33;;;;;;;;;;4990324;28;20454;-73
2022/09/08 07:49:43;;;;;;;9.83;3.90;;;;;;;;;;4976916;28;20481;-73
2022/09/08 07:52:26;;;;;;;6.60;4.13;;;;;;;;;;4986372;28;20470;-73
2022/09/08 07:54:59;;;;;;;10.40;4.27;;;;;;;;;;4979240;28;20467;-73
2022/09/08 07:57:32;;;;;;;8.73;3.43;;;;;;;;;;4992394;28;20471;-74
2022/09/08 08:00:06;;;;;;;7.77;4.00;;;;;;;;;;4990716;28;20464;-73
2022/09/08 08:02:45;;;;;;;5.93;3.97;;;;;;;;;;4988540;28;20460;-73
2022/09/08 08:05:20;;;;;;;5.00;4.10;;;;;;;;;;4989982;28;21152;-74
2022/09/08 08:08:05;;;;;;;5.07;3.27;;;;;;;;;;4992563;28;20737;-75
2022/09/08 08:10:53;;;;;;;9.77;4.00;;;;;;;;;;4992173;28;20499;-74
2022/09/08 08:13:30;;;;;;;5.80;3.07;;;;;;;;;;4991024;28;20468;-75
2022/09/08 08:16:54;;;;;;;5.03;3.20;;;;;;;;;;4993552;28;20563;-77
2022/09/08 08:19:45;;;;;;;6.60;3.93;;;;;;;;;;4982615;28;20835;-75
2022/09/08 08:22:53;;;;;;;8.50;3.90;;;;;;;;;;5003932;28;20483;-76
2022/09/08 08:25:29;;;;;;;5.77;3.40;;;;;;;;;;4988413;28;20484;-75
2022/09/08 08:28:16;;;;;;;6.70;3.80;;;;;;;;;;4992410;28;20471;-74
2022/09/08 08:30:55;;;;;;;4.23;2.90;;;;;;;;;;4984517;28;20467;-77
2022/09/08 08:33:25;;;;;;;7.70;3.47;;;;;;;;;;4993840;28;20619;-74
2022/09/08 08:38:44;;;;;;;5.10;3.30;;;;;;;;;;4985746;28;20473;-76
2022/09/08 08:41:15;;;;;;;8.07;3.60;;;;;;;;;;4992246;28;20472;-76
2022/09/08 08:44:00;;;;;;;4.40;3.00;;;;;;;;;;4989696;28;20514;-75
2022/09/08 08:46:38;;;;;;;8.70;3.23;;;;;;;;;;4983014;28;20559;-75
2022/09/08 08:49:14;;;;;;;5.43;3.13;;;;;;;;;;5003463;28;20478;-76
2022/09/08 08:52:26;;;;;;;6.10;3.63;;;;;;;;;;4990330;28;20460;-75
2022/09/08 08:55:11;;;;;;;10.77;5.43;;;;;;;;;;4983073;28;20988;-75
2022/09/08 08:58:09;;;;;;;14.43;4.73;;;;;;;;;;4985379;28;20497;-76
2022/09/08 09:00:55;;;;;;;8.67;3.77;;;;;;;;;;4971570;28;20464;-76
2022/09/08 09:03:44;;;;;;;7.50;3.87;;;;;;;;;;4976624;28;20561;-74
2022/09/08 09:06:21;;;;;;;4.77;3.90;;;;;;;;;;4991586;28;20514;-75
2022/09/08 09:09:21;;;;;;;;;;;;;;;;;;;;;
2022/09/08 09:15:34;;;;;;;6.03;3.43;;;;;;;;;;4993529;28;20479;-76
2022/09/08 09:18:36;;;;;;;11.03;3.77;;;;;;;;;;5003898;28;20467;-75
2022/09/08 09:21:14;;;;;;;6.63;4.73;;;;;;;;;;5018643;28;20657;-74
2022/09/08 09:24:13;;;;;;;;;;;;;;;;;;;;;
2022/09/08 09:33:29;;;;;;;4.87;3.40;;;;;;;;;;4969725;28;20572;-74
2022/09/08 09:36:44;;;;;;;7.47;4.37;;;;;;;;;;4974609;28;20487;-76
2022/09/08 09:39:56;;;;;;;;;;;;;;;;;;;;;
2022/09/08 09:42:56;;;;;;;8.83;4.13;;;;;;;;;;4946905;28;20943;-75
2022/09/08 09:45:40;;;;;;;8.00;4.20;;;;;;;;;;4924608;28;20512;-73
2022/09/08 09:48:30;;;;;;;7.77;4.27;;;;;;;;;;4910535;28;20490;-73
2022/09/08 09:51:06;;;;;;;5.80;4.07;;;;;;;;;;4978549;28;20483;-74
2022/09/08 09:57:03;;;;;;;18.80;4.53;;;;;;;;;;4975368;28;20468;-76
2022/09/08 09:59:55;;;;;;;7.73;4.13;;;;;;;;;;4989479;28;20486;-75
2022/09/08 10:02:43;;;;;;;6.33;4.50;;;;;;;;;;4987903;28;20479;-74
2022/09/08 10:05:30;;;;;;;7.63;5.00;;;;;;;;;;4984685;28;21207;-77
2022/09/08 10:08:20;;;;;;;8.90;5.60;;;;;;;;;;4989582;28;20460;-76
2022/09/08 10:11:06;;;;;;;15.63;9.03;;;;;;;;;;4992405;28;21057;-74
2022/09/08 10:13:53;;;;;;;11.27;4.83;;;;;;;;;;4996416;28;20479;-75
2022/09/08 10:16:40;;;;;;;13.93;6.03;;;;;;;;;;4980839;28;20524;-74
2022/09/08 10:19:37;;;;;;;10.07;5.60;;;;;;;;;;4982677;28;20551;-74
2022/09/08 10:22:32;;;;;;;13.57;6.60;;;;;;;;;;4944465;28;20475;-74
2022/09/08 10:25:27;;;;;;;9.03;5.30;;;;;;;;;;4985549;28;20568;-74
2022/09/08 10:28:29;;;;;;;10.43;6.40;;;;;;;;;;4986494;28;20548;-75
2022/09/08 10:34:47;;;;;;;;;;;;;;;;;;;;;
2022/09/08 10:37:42;;;;;;;10.13;5.50;;;;;;;;;;4990181;28;20472;-75
2022/09/08 10:40:44;;;;;;;10.30;7.10;;;;;;;;;;4983398;28;20945;-75
2022/09/08 10:43:36;;;;;;;9.00;5.87;;;;;;;;;;4991244;28;20464;-75
2022/09/08 10:46:34;;;;;;;10.10;6.80;;;;;;;;;;4992614;28;20480;-74
2022/09/08 10:49:35;;;;;;;8.60;5.47;;;;;;;;;;4969261;28;20480;-75
2022/09/08 10:52:26;;;;;;;8.83;5.93;;;;;;;;;;5018934;28;20471;-74
2022/09/08 10:55:29;;;;;;;8.40;5.00;;;;;;;;;;5022436;28;20943;-75
2022/09/08 10:58:15;;;;;;;8.93;6.13;;;;;;;;;;4989742;28;20534;-76
2022/09/08 11:01:19;;;;;;;18.80;14.40;;;;;;;;;;4975428;28;20481;-75
2022/09/08 11:04:18;;;;;;;13.60;6.87;;;;;;;;;;4982341;28;20452;-75
2022/09/08 11:07:01;;;;;;;9.70;6.50;;;;;;;;;;4971217;28;20551;-75
2022/09/08 11:16:05;;;;;;;7.20;5.83;;;;;;;;;;4980024;28;20578;-77
2022/09/08 11:19:04;;;;;;;9.60;6.73;;;;;;;;;;4995226;28;20631;-76
2022/09/08 11:21:47;;;;;;;15.13;8.60;;;;;;;;;;4985612;28;20464;-76
2022/09/08 11:24:29;;;;;;;16.93;7.53;;;;;;;;;;4981010;28;20524;-76
2022/09/08 11:27:12;;;;;;;10.20;7.77;;;;;;;;;;4991702;28;20452;-75
2022/09/08 11:29:59;;;;;;;10.87;8.77;;;;;;;;;;4991326;28;20562;-75
2022/09/08 11:39:03;;;;;;;11.73;7.67;;;;;;;;;;4990540;28;21073;-76
2022/09/08 11:45:09;;;;;;;10.47;7.77;;;;;;;;;;4920608;28;20478;-76
2022/09/08 11:48:32;;;;;;;;;;;;;;;;;;;;;
2022/09/08 11:51:35;;;;;;;;;;;;;;;;;;;;;
2022/09/08 11:54:22;;;;;;;11.47;6.90;;;;;;;;;;4936121;28;20466;-74
2022/09/08 12:09:21;;;;;;;9.27;6.07;;;;;;;;;;4900401;29;21093;-74
2022/09/08 12:18:29;;;;;;;9.43;5.93;;;;;;;;;;4940058;29;20473;-77
2022/09/08 12:36:49;;;;;;;19.47;10.97;;;;;;;;;;4973178;28;20555;-76
2022/09/08 12:49:08;;;;;;;10.33;7.90;;;;;;;;;;4964091;28;20532;-76
2022/09/08 13:04:37;;;;;;;10.57;6.50;;;;;;;;;;5007818;28;20478;-76
2022/09/08 13:07:55;;;;;;;;;;;;;;;;;;;;;
2022/09/08 13:27:14;;;;;;;10.97;8.20;;;;;;;;;;4956931;28;20478;-76
2022/09/08 13:30:03;;;;;;;8.03;6.63;;;;;;;;;;4987951;28;20472;-76
2022/09/08 13:45:56;;;;;;;;;;;;;;;;;;;;;
2022/09/08 13:49:06;;;;;;;8.03;6.37;;;;;;;;;;4976724;28;20465;-76
2022/09/08 13:52:18;;;;;;;10.40;5.80;;;;;;;;;;4977299;28;20869;-76
2022/09/08 13:55:20;;;;;;;8.43;6.30;;;;;;;;;;4959334;28;20461;-76
2022/09/08 14:04:12;;;;;;;9.47;5.30;;;;;;;;;;4903938;29;20611;-77
2022/09/08 14:06:51;;;;;;;6.40;4.90;;;;;;;;;;4994130;28;20465;-76
2022/09/08 14:12:26;;;;;;;6.83;4.63;;;;;;;;;;5014089;28;20488;-76
2022/09/08 14:15:20;;;;;;;4.90;4.40;;;;;;;;;;4969349;28;20480;-74
2022/09/08 14:18:30;;;;;;;6.17;4.73;;;;;;;;;;4958297;28;20470;-76
2022/09/08 14:21:15;;;;;;;6.43;4.77;;;;;;;;;;5016545;28;20482;-78
2022/09/08 14:24:22;;;;;;;4.30;3.80;;;;;;;;;;5008073;28;20562;-74
2022/09/08 14:27:13;;;;;;;6.57;4.43;;;;;;;;;;4961120;28;20541;-75
2022/09/08 14:33:08;;;;;;;5.70;4.60;;;;;;;;;;4953209;28;20562;-74
2022/09/08 14:35:59;;;;;;;7.30;4.53;;;;;;;;;;4958053;28;20487;-76
2022/09/08 14:38:51;;;;;;;6.10;4.50;;;;;;;;;;4971524;28;20465;-75
2022/09/08 14:41:45;;;;;;;6.87;4.30;;;;;;;;;;4980143;28;20494;-74
2022/09/08 14:47:26;;;;;;;6.90;5.10;;;;;;;;;;4977560;28;20522;-75
2022/09/08 14:50:10;;;;;;;7.20;4.40;;;;;;;;;;4979510;28;20457;-75
2022/09/08 14:53:01;;;;;;;5.57;4.70;;;;;;;;;;4947737;28;21093;-75
2022/09/08 14:55:42;;;;;;;6.70;4.50;;;;;;;;;;4981089;28;20471;-75
2022/09/08 14:58:22;;;;;;;5.07;4.17;;;;;;;;;;4978702;28;20479;-75
2022/09/08 15:03:55;;;;;;;6.50;4.33;;;;;;;;;;4965766;28;20466;-75
2022/09/08 15:09:53;;;;;;;5.77;4.17;;;;;;;;;;4997321;28;20492;-74
2022/09/08 15:12:37;;;;;;;7.77;5.20;;;;;;;;;;4905007;28;20472;-75
2022/09/08 15:15:23;;;;;;;5.97;4.33;;;;;;;;;;4899572;29;20543;-75
2022/09/08 15:21:22;;;;;;;6.70;4.20;;;;;;;;;;4931658;28;20542;-75
2022/09/08 15:23:54;;;;;;;5.97;4.80;;;;;;;;;;4957703;28;20756;-75
2022/09/08 15:26:24;;;;;;;5.50;4.30;;;;;;;;;;4943815;28;20507;-74
2022/09/08 15:29:18;;;;;;;9.63;4.27;;;;;;;;;;4955773;28;20864;-74
2022/09/08 15:31:49;;;;;;;8.90;3.70;;;;;;;;;;4941235;28;21030;-76
2022/09/08 15:34:24;;;;;;;8.67;4.90;;;;;;;;;;4957962;28;20496;-76
2022/09/08 15:37:02;;;;;;;5.33;4.30;;;;;;;;;;4958729;28;20449;-75
2022/09/08 15:39:36;;;;;;;5.60;3.70;;;;;;;;;;4955752;28;21083;-75
2022/09/08 15:42:33;;;;;;;6.60;5.20;;;;;;;;;;4959973;28;20454;-74
2022/09/08 15:45:03;;;;;;;5.43;4.23;;;;;;;;;;4957604;28;20492;-75
2022/09/08 15:47:34;;;;;;;9.30;6.60;;;;;;;;;;4960033;28;20481;-74
2022/09/08 15:50:09;;;;;;;7.70;5.40;;;;;;;;;;4960943;28;20454;-75
2022/09/08 15:52:53;;;;;;;10.13;7.77;;;;;;;;;;4954821;28;20551;-75
2022/09/08 15:55:38;;;;;;;14.47;11.00;;;;;;;;;;4947176;28;20523;-78
2022/09/08 15:58:23;;;;;;;6.50;4.90;;;;;;;;;;4938796;29;20455;-75
2022/09/08 16:01:29;;;;;;;8.23;4.40;;;;;;;;;;4942728;28;20565;-75
2022/09/08 16:04:02;;;;;;;5.07;4.10;;;;;;;;;;4898647;28;20453;-75
2022/09/08 16:06:41;;;;;;;7.10;4.83;;;;;;;;;;4937694;29;20880;-77
2022/09/08 16:09:15;;;;;;;6.47;4.80;;;;;;;;;;4939556;28;20808;-76
2022/09/08 16:11:48;;;;;;;10.00;8.20;;;;;;;;;;4936617;29;20542;-76
2022/09/08 16:14:22;;;;;;;5.80;4.60;;;;;;;;;;4938519;29;20897;-75
2022/09/08 16:17:25;;;;;;;6.03;5.07;;;;;;;;;;4938875;29;20475;-75
2022/09/08 16:20:08;;;;;;;6.70;5.00;;;;;;;;;;4970427;28;20872;-75
2022/09/08 16:22:41;;;;;;;5.20;4.67;;;;;;;;;;4968760;28;20466;-76
2022/09/08 16:25:20;;;;;;;5.00;4.40;;;;;;;;;;4958376;28;20494;-75
2022/09/08 16:27:55;;;;;;;8.00;5.70;;;;;;;;;;4945017;28;20445;-74
2022/09/08 16:30:27;;;;;;;10.50;7.10;;;;;;;;;;4946835;28;20519;-76
2022/09/08 16:33:03;;;;;;;7.03;5.53;;;;;;;;;;4943504;28;20537;-76
2022/09/08 16:35:41;;;;;;;5.43;4.50;;;;;;;;;;4947184;28;20458;-76
2022/09/08 16:38:27;;;;;;;8.70;4.57;;;;;;;;;;4947827;28;20797;-75
2022/09/08 16:41:00;;;;;;;7.93;5.27;;;;;;;;;;4947745;28;21058;-76
2022/09/08 16:43:30;;;;;;;8.40;6.20;;;;;;;;;;4949395;28;20534;-76
2022/09/08 16:49:20;;;;;;;5.77;4.43;;;;;;;;;;4940884;29;21135;-77
2022/09/08 16:51:58;;;;;;;8.40;6.50;;;;;;;;;;4944304;28;20466;-77
2022/09/08 16:55:00;;;;;;;;;;;;;;;;;;;;;
2022/09/08 16:57:41;;;;;;;4.90;4.10;;;;;;;;;;4953088;28;20968;-77
2022/09/08 17:00:20;;;;;;;8.10;6.73;;;;;;;;;;4951931;28;20458;-78
2022/09/08 17:02:59;;;;;;;9.77;5.77;;;;;;;;;;4941940;28;20483;-76
2022/09/08 17:12:33;;;;;;;6.57;4.60;;;;;;;;;;4931342;29;20517;-77
2022/09/08 17:29:59;;;;;;;5.90;5.10;;;;;;;;;;4860035;29;20479;-76
2022/09/08 17:41:59;;;;;;;6.23;5.37;;;;;;;;;;4974584;28;20453;-77
2022/09/08 17:47:56;;;;;;;6.43;5.77;;;;;;;;;;4934924;29;20781;-78
2022/09/08 17:50:43;;;;;;;7.40;5.60;;;;;;;;;;4972792;28;20463;-77
2022/09/08 17:56:48;;;;;;;5.57;5.00;;;;;;;;;;4993354;28;20487;-78
2022/09/08 17:59:41;;;;;;;7.10;5.67;;;;;;;;;;4995417;28;20499;-78
2022/09/08 18:23:45;;;;;;;7.60;6.47;;;;;;;;;;4867815;29;20455;-79
2022/09/08 18:32:53;;;;;;;;;;;;;;;;;;;;;
2022/09/08 18:59:40;;;;;;;;;;;;;;;;;;;;;
2022/09/08 19:02:17;;;;;;;7.23;5.43;;;;;;;;;;4981776;28;20549;-77
2022/09/08 19:08:24;;;;;;;5.50;4.80;;;;;;;;;;4981006;28;20476;-77
2022/09/08 19:11:00;;;;;;;6.00;5.40;;;;;;;;;;5000483;28;20452;-77
2022/09/08 19:14:09;;;;;;;6.10;5.50;;;;;;;;;;4998002;28;20475;-77
2022/09/08 19:17:00;;;;;;;10.07;5.57;;;;;;;;;;4999014;28;20874;-78
2022/09/08 19:19:35;;;;;;;6.77;5.77;;;;;;;;;;4998220;28;20471;-78
2022/09/08 19:22:20;;;;;;;7.90;5.17;;;;;;;;;;4998535;28;20502;-77
2022/09/08 19:24:58;;;;;;;6.90;6.07;;;;;;;;;;4997019;28;20496;-78
2022/09/08 19:27:41;;;;;;;6.40;5.50;;;;;;;;;;4998964;28;20547;-77
2022/09/08 19:30:27;;;;;;;6.60;5.10;;;;;;;;;;4996805;28;20488;-78
2022/09/08 19:33:16;;;;;;;6.90;6.20;;;;;;;;;;4996935;28;20473;-77
2022/09/08 19:35:47;;;;;;;6.30;5.70;;;;;;;;;;4996325;28;20467;-78
2022/09/08 19:45:27;;;;;;;7.17;6.13;;;;;;;;;;4987862;28;20526;-77
2022/09/08 19:48:18;;;;;;;6.33;5.60;;;;;;;;;;4998943;28;20475;-77
2022/09/08 19:51:19;;;;;;;6.30;5.70;;;;;;;;;;4982015;28;20457;-77
2022/09/08 19:59:52;;;;;;;6.30;5.60;;;;;;;;;;4942077;28;20455;-77
2022/09/08 20:05:40;;;;;;;7.03;6.33;;;;;;;;;;4941585;28;20483;-79
2022/09/08 20:08:31;;;;;;;6.87;6.27;;;;;;;;;;5004518;28;20468;-78
2022/09/08 20:11:22;;;;;;;7.83;7.07;;;;;;;;;;5063286;28;20446;-77
2022/09/08 20:14:31;;;;;;;8.27;6.70;;;;;;;;;;5055499;28;20507;-78
2022/09/08 20:17:14;;;;;;;9.20;6.53;;;;;;;;;;4981006;28;20532;-77
2022/09/08 20:19:43;;;;;;;7.13;6.27;;;;;;;;;;4979222;28;20469;-77